Weather at Indianapolis International Airport

Public forecast

Using degrees Fahrenheit for public forecast. Weather courtesy of forecast.io.

Current aviation weather report (METAR) for Indianapolis International Airport

Retrieved 2021/05/09 00:54 UTC (34 minutes ago):

KIND 090054Z 10010KT 10SM SCT095 BKN130 OVC180 13/01 A2999 RMK AO2 SLP157 T01280011

Aviation forecast (TAF) for Indianapolis International Airport

Retrieved 2021-05-09 00:39 UTC (49 minutes ago):

TAF KIND 082338Z 0900/1006 09005KT P6SM VCSH SCT090 BKN120 BKN250 FM090400 11007G15KT 6SM SHRA OVC050 FM090800 10010G21KT 6SM SHRA BR OVC035 FM091800 25012G22KT 4SM SHRA BR OVC007 FM092200 02015G24KT P6SM OVC009